sensor_id;sensor_type;location;lat;lon;timestamp;temperature;humidity
32394;DHT22;18853;45.426;9.206;2024-01-11T00:00:35;10.30;42.90
32394;DHT22;18853;45.426;9.206;2024-01-11T00:03:01;10.30;42.90
32394;DHT22;18853;45.426;9.206;2024-01-11T00:05:27;10.30;43.00
32394;DHT22;18853;45.426;9.206;2024-01-11T00:07:52;10.30;43.10
32394;DHT22;18853;45.426;9.206;2024-01-11T00:10:18;10.20;43.20
32394;DHT22;18853;45.426;9.206;2024-01-11T00:12:44;10.20;43.30
32394;DHT22;18853;45.426;9.206;2024-01-11T00:15:09;10.20;43.50
32394;DHT22;18853;45.426;9.206;2024-01-11T00:17:36;10.20;43.80
32394;DHT22;18853;45.426;9.206;2024-01-11T00:20:02;10.20;44.00
32394;DHT22;18853;45.426;9.206;2024-01-11T00:22:27;10.20;44.10
32394;DHT22;18853;45.426;9.206;2024-01-11T00:24:53;10.20;44.20
32394;DHT22;18853;45.426;9.206;2024-01-11T00:27:19;10.10;44.30
32394;DHT22;18853;45.426;9.206;2024-01-11T00:29:44;10.10;44.40
32394;DHT22;18853;45.426;9.206;2024-01-11T00:32:10;10.10;44.60
32394;DHT22;18853;45.426;9.206;2024-01-11T00:34:35;10.10;44.60
32394;DHT22;18853;45.426;9.206;2024-01-11T00:37:01;10.10;44.50
32394;DHT22;18853;45.426;9.206;2024-01-11T00:39:27;10.00;44.70
32394;DHT22;18853;45.426;9.206;2024-01-11T00:41:54;10.10;44.90
32394;DHT22;18853;45.426;9.206;2024-01-11T00:44:20;10.00;45.10
32394;DHT22;18853;45.426;9.206;2024-01-11T00:46:45;10.00;45.20
32394;DHT22;18853;45.426;9.206;2024-01-11T00:49:11;10.00;45.30
32394;DHT22;18853;45.426;9.206;2024-01-11T00:51:36;10.00;45.30
32394;DHT22;18853;45.426;9.206;2024-01-11T00:54:02;10.00;45.20
32394;DHT22;18853;45.426;9.206;2024-01-11T00:56:28;10.00;45.20
32394;DHT22;18853;45.426;9.206;2024-01-11T00:58:53;10.00;45.00
32394;DHT22;18853;45.426;9.206;2024-01-11T01:01:19;10.00;45.10
32394;DHT22;18853;45.426;9.206;2024-01-11T01:03:45;9.90;45.30
32394;DHT22;18853;45.426;9.206;2024-01-11T01:06:10;10.00;45.30
32394;DHT22;18853;45.426;9.206;2024-01-11T01:08:36;10.00;45.40
32394;DHT22;18853;45.426;9.206;2024-01-11T01:11:02;10.00;45.30
32394;DHT22;18853;45.426;9.206;2024-01-11T01:13:27;10.00;45.50
32394;DHT22;18853;45.426;9.206;2024-01-11T01:15:53;10.00;45.50
32394;DHT22;18853;45.426;9.206;2024-01-11T01:18:18;9.90;45.80
32394;DHT22;18853;45.426;9.206;2024-01-11T01:20:44;9.90;46.00
32394;DHT22;18853;45.426;9.206;2024-01-11T01:23:10;9.90;46.10
32394;DHT22;18853;45.426;9.206;2024-01-11T01:25:35;9.80;46.20
32394;DHT22;18853;45.426;9.206;2024-01-11T01:28:01;9.80;46.30
32394;DHT22;18853;45.426;9.206;2024-01-11T01:30:27;9.80;46.40
32394;DHT22;18853;45.426;9.206;2024-01-11T01:32:53;9.80;46.50
32394;DHT22;18853;45.426;9.206;2024-01-11T01:35:19;9.80;46.60
32394;DHT22;18853;45.426;9.206;2024-01-11T01:37:44;9.80;46.70
32394;DHT22;18853;45.426;9.206;2024-01-11T01:40:11;9.70;47.00
32394;DHT22;18853;45.426;9.206;2024-01-11T01:42:44;9.70;47.00
32394;DHT22;18853;45.426;9.206;2024-01-11T01:45:10;9.70;47.30
32394;DHT22;18853;45.426;9.206;2024-01-11T01:47:37;9.70;47.50
32394;DHT22;18853;45.426;9.206;2024-01-11T01:50:04;9.70;47.50
32394;DHT22;18853;45.426;9.206;2024-01-11T01:52:30;9.70;47.60
32394;DHT22;18853;45.426;9.206;2024-01-11T01:54:57;9.60;48.30
32394;DHT22;18853;45.426;9.206;2024-01-11T01:57:24;9.60;47.80
32394;DHT22;18853;45.426;9.206;2024-01-11T01:59:52;9.60;47.90
32394;DHT22;18853;45.426;9.206;2024-01-11T02:02:19;9.60;47.90
32394;DHT22;18853;45.426;9.206;2024-01-11T02:04:45;9.60;48.00
32394;DHT22;18853;45.426;9.206;2024-01-11T02:07:11;9.60;48.70
32394;DHT22;18853;45.426;9.206;2024-01-11T02:09:37;9.60;48.20
32394;DHT22;18853;45.426;9.206;2024-01-11T02:12:04;9.60;48.30
32394;DHT22;18853;45.426;9.206;2024-01-11T02:14:30;9.60;48.30
32394;DHT22;18853;45.426;9.206;2024-01-11T02:16:56;9.50;48.30
32394;DHT22;18853;45.426;9.206;2024-01-11T02:19:21;9.50;48.50
32394;DHT22;18853;45.426;9.206;2024-01-11T02:21:50;9.50;48.60
32394;DHT22;18853;45.426;9.206;2024-01-11T02:24:17;9.50;48.60
32394;DHT22;18853;45.426;9.206;2024-01-11T02:27:03;9.60;48.30
32394;DHT22;18853;45.426;9.206;2024-01-11T02:29:30;9.60;47.90
32394;DHT22;18853;45.426;9.206;2024-01-11T02:31:57;9.60;47.90
32394;DHT22;18853;45.426;9.206;2024-01-11T02:34:24;9.60;47.80
32394;DHT22;18853;45.426;9.206;2024-01-11T02:36:50;9.60;48.30
32394;DHT22;18853;45.426;9.206;2024-01-11T02:39:16;9.70;47.90
32394;DHT22;18853;45.426;9.206;2024-01-11T02:41:44;9.60;47.80
32394;DHT22;18853;45.426;9.206;2024-01-11T02:44:10;9.60;47.90
32394;DHT22;18853;45.426;9.206;2024-01-11T02:46:35;9.60;48.00
32394;DHT22;18853;45.426;9.206;2024-01-11T02:49:01;9.60;48.20
32394;DHT22;18853;45.426;9.206;2024-01-11T02:51:26;9.50;48.10
32394;DHT22;18853;45.426;9.206;2024-01-11T02:53:52;9.50;48.20
32394;DHT22;18853;45.426;9.206;2024-01-11T02:56:18;9.50;48.90
32394;DHT22;18853;45.426;9.206;2024-01-11T02:58:43;9.40;48.50
32394;DHT22;18853;45.426;9.206;2024-01-11T03:01:09;9.40;48.60
32394;DHT22;18853;45.426;9.206;2024-01-11T03:03:36;9.40;48.80
32394;DHT22;18853;45.426;9.206;2024-01-11T03:06:02;9.40;48.80
32394;DHT22;18853;45.426;9.206;2024-01-11T03:08:28;9.40;48.80
32394;DHT22;18853;45.426;9.206;2024-01-11T03:10:53;9.30;48.80
32394;DHT22;18853;45.426;9.206;2024-01-11T03:13:19;9.30;48.80
32394;DHT22;18853;45.426;9.206;2024-01-11T03:15:45;9.30;48.90
32394;DHT22;18853;45.426;9.206;2024-01-11T03:18:10;9.30;48.90
32394;DHT22;18853;45.426;9.206;2024-01-11T03:20:36;9.30;49.00
32394;DHT22;18853;45.426;9.206;2024-01-11T03:23:01;9.30;49.10
32394;DHT22;18853;45.426;9.206;2024-01-11T03:25:28;9.30;49.20
32394;DHT22;18853;45.426;9.206;2024-01-11T03:27:54;9.30;49.20
32394;DHT22;18853;45.426;9.206;2024-01-11T03:30:20;9.30;49.20
32394;DHT22;18853;45.426;9.206;2024-01-11T03:32:45;9.30;49.20
32394;DHT22;18853;45.426;9.206;2024-01-11T03:35:11;9.20;49.20
32394;DHT22;18853;45.426;9.206;2024-01-11T03:37:36;9.30;49.30
32394;DHT22;18853;45.426;9.206;2024-01-11T03:40:03;9.30;49.40
32394;DHT22;18853;45.426;9.206;2024-01-11T03:42:29;9.30;49.50
32394;DHT22;18853;45.426;9.206;2024-01-11T03:44:54;9.30;49.40
32394;DHT22;18853;45.426;9.206;2024-01-11T03:47:20;9.30;49.20
32394;DHT22;18853;45.426;9.206;2024-01-11T03:49:46;9.30;49.20
32394;DHT22;18853;45.426;9.206;2024-01-11T03:52:12;9.30;49.30
32394;DHT22;18853;45.426;9.206;2024-01-11T03:54:37;9.20;49.20
32394;DHT22;18853;45.426;9.206;2024-01-11T03:57:03;9.30;49.20
32394;DHT22;18853;45.426;9.206;2024-01-11T03:59:29;9.30;49.20
32394;DHT22;18853;45.426;9.206;2024-01-11T04:01:55;9.30;49.20
32394;DHT22;18853;45.426;9.206;2024-01-11T04:04:21;9.30;49.20
32394;DHT22;18853;45.426;9.206;2024-01-11T04:06:48;9.30;49.00
32394;DHT22;18853;45.426;9.206;2024-01-11T04:09:14;9.20;48.90
32394;DHT22;18853;45.426;9.206;2024-01-11T04:11:40;9.20;49.10
32394;DHT22;18853;45.426;9.206;2024-01-11T04:14:06;9.20;48.90
32394;DHT22;18853;45.426;9.206;2024-01-11T04:16:31;9.20;49.10
32394;DHT22;18853;45.426;9.206;2024-01-11T04:18:57;9.20;49.20
32394;DHT22;18853;45.426;9.206;2024-01-11T04:21:26;9.20;49.20
32394;DHT22;18853;45.426;9.206;2024-01-11T04:23:56;9.10;49.20
32394;DHT22;18853;45.426;9.206;2024-01-11T04:26:22;9.20;49.10
32394;DHT22;18853;45.426;9.206;2024-01-11T04:28:48;9.20;48.90
32394;DHT22;18853;45.426;9.206;2024-01-11T04:31:15;9.20;48.80
32394;DHT22;18853;45.426;9.206;2024-01-11T04:33:42;9.20;48.70
32394;DHT22;18853;45.426;9.206;2024-01-11T04:36:09;9.20;48.70
32394;DHT22;18853;45.426;9.206;2024-01-11T04:38:35;9.20;48.70
32394;DHT22;18853;45.426;9.206;2024-01-11T04:41:00;9.20;48.70
32394;DHT22;18853;45.426;9.206;2024-01-11T04:43:26;9.20;48.50
32394;DHT22;18853;45.426;9.206;2024-01-11T04:45:52;9.20;48.60
32394;DHT22;18853;45.426;9.206;2024-01-11T04:48:17;9.20;48.40
32394;DHT22;18853;45.426;9.206;2024-01-11T04:50:44;9.20;48.20
32394;DHT22;18853;45.426;9.206;2024-01-11T04:53:10;9.30;48.00
32394;DHT22;18853;45.426;9.206;2024-01-11T04:55:35;9.30;47.80
32394;DHT22;18853;45.426;9.206;2024-01-11T04:58:01;9.30;47.60
32394;DHT22;18853;45.426;9.206;2024-01-11T05:00:26;9.30;47.50
32394;DHT22;18853;45.426;9.206;2024-01-11T05:02:52;9.30;47.50
32394;DHT22;18853;45.426;9.206;2024-01-11T05:05:17;9.20;47.60
32394;DHT22;18853;45.426;9.206;2024-01-11T05:07:43;9.30;47.70
32394;DHT22;18853;45.426;9.206;2024-01-11T05:10:09;9.20;47.60
32394;DHT22;18853;45.426;9.206;2024-01-11T05:12:34;9.20;47.60
32394;DHT22;18853;45.426;9.206;2024-01-11T05:15:02;9.30;47.50
32394;DHT22;18853;45.426;9.206;2024-01-11T05:17:28;9.20;47.50
32394;DHT22;18853;45.426;9.206;2024-01-11T05:19:53;9.20;47.70
32394;DHT22;18853;45.426;9.206;2024-01-11T05:22:19;9.20;47.90
32394;DHT22;18853;45.426;9.206;2024-01-11T05:24:44;9.10;47.90
32394;DHT22;18853;45.426;9.206;2024-01-11T05:27:10;9.10;48.10
32394;DHT22;18853;45.426;9.206;2024-01-11T05:29:36;9.10;47.90
32394;DHT22;18853;45.426;9.206;2024-01-11T05:32:01;9.10;48.00
32394;DHT22;18853;45.426;9.206;2024-01-11T05:34:27;9.10;48.10
32394;DHT22;18853;45.426;9.206;2024-01-11T05:36:52;9.20;47.70
32394;DHT22;18853;45.426;9.206;2024-01-11T05:39:18;9.20;47.60
32394;DHT22;18853;45.426;9.206;2024-01-11T05:41:44;9.20;47.60
32394;DHT22;18853;45.426;9.206;2024-01-11T05:44:10;9.20;47.60
32394;DHT22;18853;45.426;9.206;2024-01-11T05:46:36;9.20;47.60
32394;DHT22;18853;45.426;9.206;2024-01-11T05:49:02;9.20;47.70
32394;DHT22;18853;45.426;9.206;2024-01-11T05:51:28;9.10;47.70
32394;DHT22;18853;45.426;9.206;2024-01-11T05:53:53;9.10;47.70
32394;DHT22;18853;45.426;9.206;2024-01-11T05:56:19;9.10;47.90
32394;DHT22;18853;45.426;9.206;2024-01-11T05:58:47;9.10;47.80
32394;DHT22;18853;45.426;9.206;2024-01-11T06:01:13;9.10;47.70
32394;DHT22;18853;45.426;9.206;2024-01-11T06:03:39;9.10;47.80
32394;DHT22;18853;45.426;9.206;2024-01-11T06:06:05;9.10;47.80
32394;DHT22;18853;45.426;9.206;2024-01-11T06:08:30;9.00;48.10
32394;DHT22;18853;45.426;9.206;2024-01-11T06:10:59;9.00;48.00
32394;DHT22;18853;45.426;9.206;2024-01-11T06:13:25;9.00;48.20
32394;DHT22;18853;45.426;9.206;2024-01-11T06:15:51;9.00;48.30
32394;DHT22;18853;45.426;9.206;2024-01-11T06:18:17;9.00;48.30
32394;DHT22;18853;45.426;9.206;2024-01-11T06:20:42;8.90;48.40
32394;DHT22;18853;45.426;9.206;2024-01-11T06:23:08;8.90;48.30
32394;DHT22;18853;45.426;9.206;2024-01-11T06:25:33;8.90;48.30
32394;DHT22;18853;45.426;9.206;2024-01-11T06:27:59;8.90;48.20
32394;DHT22;18853;45.426;9.206;2024-01-11T06:30:25;8.90;48.20
32394;DHT22;18853;45.426;9.206;2024-01-11T06:32:50;8.90;48.20
32394;DHT22;18853;45.426;9.206;2024-01-11T06:35:16;8.90;48.20
32394;DHT22;18853;45.426;9.206;2024-01-11T06:37:42;8.80;48.30
32394;DHT22;18853;45.426;9.206;2024-01-11T06:40:07;8.80;48.40
32394;DHT22;18853;45.426;9.206;2024-01-11T06:42:34;8.80;48.70
32394;DHT22;18853;45.426;9.206;2024-01-11T06:44:59;8.80;48.80
32394;DHT22;18853;45.426;9.206;2024-01-11T06:47:25;8.70;48.70
32394;DHT22;18853;45.426;9.206;2024-01-11T06:49:51;8.70;48.80
32394;DHT22;18853;45.426;9.206;2024-01-11T06:52:16;8.70;48.80
32394;DHT22;18853;45.426;9.206;2024-01-11T06:54:42;8.70;49.00
32394;DHT22;18853;45.426;9.206;2024-01-11T06:57:08;8.70;49.10
32394;DHT22;18853;45.426;9.206;2024-01-11T06:59:33;8.70;48.90
32394;DHT22;18853;45.426;9.206;2024-01-11T07:01:59;8.70;48.90
32394;DHT22;18853;45.426;9.206;2024-01-11T07:04:25;8.70;49.10
32394;DHT22;18853;45.426;9.206;2024-01-11T07:06:50;8.70;49.10
32394;DHT22;18853;45.426;9.206;2024-01-11T07:09:16;8.70;49.00
32394;DHT22;18853;45.426;9.206;2024-01-11T07:11:42;8.70;49.00
32394;DHT22;18853;45.426;9.206;2024-01-11T07:14:08;8.70;48.90
32394;DHT22;18853;45.426;9.206;2024-01-11T07:16:34;8.80;49.00
32394;DHT22;18853;45.426;9.206;2024-01-11T07:19:00;8.70;49.00
32394;DHT22;18853;45.426;9.206;2024-01-11T07:21:26;8.70;49.20
32394;DHT22;18853;45.426;9.206;2024-01-11T07:24:01;8.70;49.20
32394;DHT22;18853;45.426;9.206;2024-01-11T07:26:27;8.70;49.20
32394;DHT22;18853;45.426;9.206;2024-01-11T07:28:53;8.70;49.20
32394;DHT22;18853;45.426;9.206;2024-01-11T07:31:21;8.70;49.20
32394;DHT22;18853;45.426;9.206;2024-01-11T07:33:47;8.70;49.20
32394;DHT22;18853;45.426;9.206;2024-01-11T07:36:13;8.80;49.00
32394;DHT22;18853;45.426;9.206;2024-01-11T07:38:39;8.80;48.80
32394;DHT22;18853;45.426;9.206;2024-01-11T07:41:04;8.80;48.50
32394;DHT22;18853;45.426;9.206;2024-01-11T07:43:30;8.90;48.40
32394;DHT22;18853;45.426;9.206;2024-01-11T07:45:57;8.90;48.50
32394;DHT22;18853;45.426;9.206;2024-01-11T07:48:23;8.90;48.20
32394;DHT22;18853;45.426;9.206;2024-01-11T07:50:49;8.90;47.70
32394;DHT22;18853;45.426;9.206;2024-01-11T07:53:15;9.00;47.50
32394;DHT22;18853;45.426;9.206;2024-01-11T07:55:41;9.10;47.30
32394;DHT22;18853;45.426;9.206;2024-01-11T07:58:06;9.10;46.70
32394;DHT22;18853;45.426;9.206;2024-01-11T08:00:33;9.30;46.50
32394;DHT22;18853;45.426;9.206;2024-01-11T08:02:59;9.30;46.30
32394;DHT22;18853;45.426;9.206;2024-01-11T08:05:24;9.40;45.80
32394;DHT22;18853;45.426;9.206;2024-01-11T08:07:50;9.40;45.70
32394;DHT22;18853;45.426;9.206;2024-01-11T08:10:16;9.40;45.70
32394;DHT22;18853;45.426;9.206;2024-01-11T08:12:42;9.40;45.80
32394;DHT22;18853;45.426;9.206;2024-01-11T08:15:07;9.40;46.00
32394;DHT22;18853;45.426;9.206;2024-01-11T08:17:46;9.40;46.10
32394;DHT22;18853;45.426;9.206;2024-01-11T08:20:12;9.40;46.30
32394;DHT22;18853;45.426;9.206;2024-01-11T08:22:44;9.40;46.40
32394;DHT22;18853;45.426;9.206;2024-01-11T08:25:11;9.50;46.20
32394;DHT22;18853;45.426;9.206;2024-01-11T08:27:36;9.40;46.00
32394;DHT22;18853;45.426;9.206;2024-01-11T08:30:02;9.40;46.10
32394;DHT22;18853;45.426;9.206;2024-01-11T08:32:30;9.40;46.30
32394;DHT22;18853;45.426;9.206;2024-01-11T08:34:57;9.40;46.30
32394;DHT22;18853;45.426;9.206;2024-01-11T08:37:22;9.40;46.30
32394;DHT22;18853;45.426;9.206;2024-01-11T08:39:49;9.50;46.20
32394;DHT22;18853;45.426;9.206;2024-01-11T08:42:14;9.50;46.00
32394;DHT22;18853;45.426;9.206;2024-01-11T08:44:43;9.60;46.00
32394;DHT22;18853;45.426;9.206;2024-01-11T08:47:09;9.70;46.00
32394;DHT22;18853;45.426;9.206;2024-01-11T08:49:41;9.70;45.80
32394;DHT22;18853;45.426;9.206;2024-01-11T08:52:07;9.70;45.80
32394;DHT22;18853;45.426;9.206;2024-01-11T08:54:33;9.60;46.00
32394;DHT22;18853;45.426;9.206;2024-01-11T08:56:59;9.60;46.10
32394;DHT22;18853;45.426;9.206;2024-01-11T08:59:24;9.60;46.30
32394;DHT22;18853;45.426;9.206;2024-01-11T09:01:51;9.60;46.40
32394;DHT22;18853;45.426;9.206;2024-01-11T09:04:17;9.60;46.50
32394;DHT22;18853;45.426;9.206;2024-01-11T09:06:43;9.60;46.50
32394;DHT22;18853;45.426;9.206;2024-01-11T09:09:10;9.70;46.60
32394;DHT22;18853;45.426;9.206;2024-01-11T09:11:36;9.80;46.50
32394;DHT22;18853;45.426;9.206;2024-01-11T09:14:01;9.80;46.40
32394;DHT22;18853;45.426;9.206;2024-01-11T09:16:28;9.90;46.50
32394;DHT22;18853;45.426;9.206;2024-01-11T09:18:54;9.80;46.60
32394;DHT22;18853;45.426;9.206;2024-01-11T09:21:19;9.90;46.60
32394;DHT22;18853;45.426;9.206;2024-01-11T09:23:45;9.90;46.70
32394;DHT22;18853;45.426;9.206;2024-01-11T09:26:11;10.00;46.90
32394;DHT22;18853;45.426;9.206;2024-01-11T09:28:37;10.00;46.90
32394;DHT22;18853;45.426;9.206;2024-01-11T09:31:03;10.00;47.00
32394;DHT22;18853;45.426;9.206;2024-01-11T09:33:29;9.90;47.10
32394;DHT22;18853;45.426;9.206;2024-01-11T09:35:55;10.00;47.00
32394;DHT22;18853;45.426;9.206;2024-01-11T09:38:23;10.00;46.70
32394;DHT22;18853;45.426;9.206;2024-01-11T09:41:18;10.10;46.60
32394;DHT22;18853;45.426;9.206;2024-01-11T09:43:45;10.20;46.30
32394;DHT22;18853;45.426;9.206;2024-01-11T09:46:13;10.20;46.40
32394;DHT22;18853;45.426;9.206;2024-01-11T09:48:39;10.20;46.40
32394;DHT22;18853;45.426;9.206;2024-01-11T09:51:09;10.20;46.60
32394;DHT22;18853;45.426;9.206;2024-01-11T09:53:37;10.20;46.60
32394;DHT22;18853;45.426;9.206;2024-01-11T09:56:09;10.30;46.60
32394;DHT22;18853;45.426;9.206;2024-01-11T09:58:36;10.30;46.30
32394;DHT22;18853;45.426;9.206;2024-01-11T10:01:02;10.30;46.10
32394;DHT22;18853;45.426;9.206;2024-01-11T10:03:28;10.20;45.90
32394;DHT22;18853;45.426;9.206;2024-01-11T10:05:57;10.20;46.10
32394;DHT22;18853;45.426;9.206;2024-01-11T10:08:23;10.20;46.40
32394;DHT22;18853;45.426;9.206;2024-01-11T10:10:49;10.20;46.40
32394;DHT22;18853;45.426;9.206;2024-01-11T10:13:16;10.30;46.90
32394;DHT22;18853;45.426;9.206;2024-01-11T10:15:42;10.40;46.30
32394;DHT22;18853;45.426;9.206;2024-01-11T10:18:08;10.40;46.30
32394;DHT22;18853;45.426;9.206;2024-01-11T10:20:34;10.40;46.10
32394;DHT22;18853;45.426;9.206;2024-01-11T10:22:59;10.40;46.00
32394;DHT22;18853;45.426;9.206;2024-01-11T10:25:26;10.30;46.00
32394;DHT22;18853;45.426;9.206;2024-01-11T10:27:52;10.30;46.20
32394;DHT22;18853;45.426;9.206;2024-01-11T10:30:18;10.30;46.10
32394;DHT22;18853;45.426;9.206;2024-01-11T10:32:46;10.40;46.20
32394;DHT22;18853;45.426;9.206;2024-01-11T10:35:12;10.30;46.30
32394;DHT22;18853;45.426;9.206;2024-01-11T10:37:38;10.30;46.30
32394;DHT22;18853;45.426;9.206;2024-01-11T10:40:08;10.30;46.00
32394;DHT22;18853;45.426;9.206;2024-01-11T10:42:45;10.30;46.00
32394;DHT22;18853;45.426;9.206;2024-01-11T10:45:15;10.30;46.00
32394;DHT22;18853;45.426;9.206;2024-01-11T10:47:50;10.30;45.90
32394;DHT22;18853;45.426;9.206;2024-01-11T10:50:18;10.50;45.80
32394;DHT22;18853;45.426;9.206;2024-01-11T10:55:41;10.40;45.60
32394;DHT22;18853;45.426;9.206;2024-01-11T10:58:07;10.40;45.90
32394;DHT22;18853;45.426;9.206;2024-01-11T11:00:36;10.50;45.90
32394;DHT22;18853;45.426;9.206;2024-01-11T11:03:03;10.50;45.80
32394;DHT22;18853;45.426;9.206;2024-01-11T11:05:31;10.50;45.90
32394;DHT22;18853;45.426;9.206;2024-01-11T11:07:58;10.40;46.00
32394;DHT22;18853;45.426;9.206;2024-01-11T11:10:25;10.40;46.00
32394;DHT22;18853;45.426;9.206;2024-01-11T11:12:54;10.40;46.00
32394;DHT22;18853;45.426;9.206;2024-01-11T11:15:21;10.50;46.10
32394;DHT22;18853;45.426;9.206;2024-01-11T11:17:49;10.60;46.10
32394;DHT22;18853;45.426;9.206;2024-01-11T11:20:15;10.50;46.20
32394;DHT22;18853;45.426;9.206;2024-01-11T11:22:42;10.60;46.30
32394;DHT22;18853;45.426;9.206;2024-01-11T11:25:10;10.60;46.20
32394;DHT22;18853;45.426;9.206;2024-01-11T11:27:37;10.70;46.10
32394;DHT22;18853;45.426;9.206;2024-01-11T11:30:04;10.70;46.10
32394;DHT22;18853;45.426;9.206;2024-01-11T11:32:37;10.80;46.10
32394;DHT22;18853;45.426;9.206;2024-01-11T11:35:05;10.80;46.20
32394;DHT22;18853;45.426;9.206;2024-01-11T11:37:31;10.80;46.30
32394;DHT22;18853;45.426;9.206;2024-01-11T11:39:59;10.80;46.50
32394;DHT22;18853;45.426;9.206;2024-01-11T11:42:26;10.80;46.40
32394;DHT22;18853;45.426;9.206;2024-01-11T11:44:52;10.80;46.40
32394;DHT22;18853;45.426;9.206;2024-01-11T11:47:21;10.90;46.30
32394;DHT22;18853;45.426;9.206;2024-01-11T11:50:07;10.90;46.30
32394;DHT22;18853;45.426;9.206;2024-01-11T11:52:35;11.00;46.40
32394;DHT22;18853;45.426;9.206;2024-01-11T11:55:01;11.00;46.50
32394;DHT22;18853;45.426;9.206;2024-01-11T11:57:28;11.20;46.40
32394;DHT22;18853;45.426;9.206;2024-01-11T11:59:57;11.20;46.30
32394;DHT22;18853;45.426;9.206;2024-01-11T12:02:25;11.40;46.00
32394;DHT22;18853;45.426;9.206;2024-01-11T12:04:50;11.40;45.80
32394;DHT22;18853;45.426;9.206;2024-01-11T12:07:16;11.60;45.80
32394;DHT22;18853;45.426;9.206;2024-01-11T12:09:42;11.60;45.60
32394;DHT22;18853;45.426;9.206;2024-01-11T12:12:09;11.70;45.70
32394;DHT22;18853;45.426;9.206;2024-01-11T12:14:35;11.80;45.50
32394;DHT22;18853;45.426;9.206;2024-01-11T12:17:01;11.90;45.50
32394;DHT22;18853;45.426;9.206;2024-01-11T12:19:27;12.00;45.40
32394;DHT22;18853;45.426;9.206;2024-01-11T12:21:53;12.10;45.40
32394;DHT22;18853;45.426;9.206;2024-01-11T12:24:20;12.10;45.30
32394;DHT22;18853;45.426;9.206;2024-01-11T12:26:47;12.20;45.10
32394;DHT22;18853;45.426;9.206;2024-01-11T12:29:17;12.30;44.90
32394;DHT22;18853;45.426;9.206;2024-01-11T12:31:44;12.40;44.60
32394;DHT22;18853;45.426;9.206;2024-01-11T12:34:11;12.50;44.40
32394;DHT22;18853;45.426;9.206;2024-01-11T12:36:37;12.70;44.20
32394;DHT22;18853;45.426;9.206;2024-01-11T12:39:03;12.80;44.40
32394;DHT22;18853;45.426;9.206;2024-01-11T12:41:31;12.80;44.30
32394;DHT22;18853;45.426;9.206;2024-01-11T12:43:57;12.90;44.00
32394;DHT22;18853;45.426;9.206;2024-01-11T12:46:23;13.00;44.00
32394;DHT22;18853;45.426;9.206;2024-01-11T12:48:49;13.10;43.90
32394;DHT22;18853;45.426;9.206;2024-01-11T12:51:17;13.10;43.80
32394;DHT22;18853;45.426;9.206;2024-01-11T12:53:51;13.20;43.80
32394;DHT22;18853;45.426;9.206;2024-01-11T12:56:18;13.40;43.60
32394;DHT22;18853;45.426;9.206;2024-01-11T12:58:46;13.40;43.60
32394;DHT22;18853;45.426;9.206;2024-01-11T13:01:12;13.40;43.50
32394;DHT22;18853;45.426;9.206;2024-01-11T13:03:43;13.50;43.40
32394;DHT22;18853;45.426;9.206;2024-01-11T13:06:09;13.60;43.30
32394;DHT22;18853;45.426;9.206;2024-01-11T13:08:37;13.70;43.10
32394;DHT22;18853;45.426;9.206;2024-01-11T13:11:05;13.70;43.00
32394;DHT22;18853;45.426;9.206;2024-01-11T13:13:35;13.90;43.00
32394;DHT22;18853;45.426;9.206;2024-01-11T13:16:04;13.90;42.70
32394;DHT22;18853;45.426;9.206;2024-01-11T13:18:36;14.10;42.70
32394;DHT22;18853;45.426;9.206;2024-01-11T13:21:02;14.20;42.50
32394;DHT22;18853;45.426;9.206;2024-01-11T13:23:28;14.30;42.10
32394;DHT22;18853;45.426;9.206;2024-01-11T13:25:53;14.40;42.00
32394;DHT22;18853;45.426;9.206;2024-01-11T13:28:19;14.50;42.10
32394;DHT22;18853;45.426;9.206;2024-01-11T13:30:45;14.60;42.10
32394;DHT22;18853;45.426;9.206;2024-01-11T13:33:12;14.70;41.90
32394;DHT22;18853;45.426;9.206;2024-01-11T13:35:40;14.70;41.70
32394;DHT22;18853;45.426;9.206;2024-01-11T13:38:06;14.70;41.60
32394;DHT22;18853;45.426;9.206;2024-01-11T13:40:32;14.70;41.80
32394;DHT22;18853;45.426;9.206;2024-01-11T13:42:58;14.90;41.70
32394;DHT22;18853;45.426;9.206;2024-01-11T13:45:27;15.00;41.50
32394;DHT22;18853;45.426;9.206;2024-01-11T13:47:53;15.10;41.10
32394;DHT22;18853;45.426;9.206;2024-01-11T13:50:20;15.20;40.70
32394;DHT22;18853;45.426;9.206;2024-01-11T13:52:45;15.30;40.30
32394;DHT22;18853;45.426;9.206;2024-01-11T13:55:12;15.40;40.00
32394;DHT22;18853;45.426;9.206;2024-01-11T13:57:38;15.40;39.80
32394;DHT22;18853;45.426;9.206;2024-01-11T14:00:06;15.50;39.80
32394;DHT22;18853;45.426;9.206;2024-01-11T14:02:32;15.50;39.50
32394;DHT22;18853;45.426;9.206;2024-01-11T14:04:58;15.60;40.00
32394;DHT22;18853;45.426;9.206;2024-01-11T14:07:24;15.70;39.20
32394;DHT22;18853;45.426;9.206;2024-01-11T14:09:50;15.80;39.80
32394;DHT22;18853;45.426;9.206;2024-01-11T14:12:16;15.80;39.10
32394;DHT22;18853;45.426;9.206;2024-01-11T14:14:42;15.90;39.10
32394;DHT22;18853;45.426;9.206;2024-01-11T14:17:08;15.90;39.10
32394;DHT22;18853;45.426;9.206;2024-01-11T14:19:34;16.10;38.90
32394;DHT22;18853;45.426;9.206;2024-01-11T14:21:59;16.10;38.70
32394;DHT22;18853;45.426;9.206;2024-01-11T14:24:26;16.20;38.60
32394;DHT22;18853;45.426;9.206;2024-01-11T14:26:52;16.20;38.60
32394;DHT22;18853;45.426;9.206;2024-01-11T14:29:17;16.20;38.70
32394;DHT22;18853;45.426;9.206;2024-01-11T14:31:43;16.20;38.50
32394;DHT22;18853;45.426;9.206;2024-01-11T14:34:09;16.20;38.50
32394;DHT22;18853;45.426;9.206;2024-01-11T14:36:36;16.20;38.50
32394;DHT22;18853;45.426;9.206;2024-01-11T14:39:01;16.10;38.50
32394;DHT22;18853;45.426;9.206;2024-01-11T14:41:30;16.10;38.40
32394;DHT22;18853;45.426;9.206;2024-01-11T14:43:56;16.10;38.60
32394;DHT22;18853;45.426;9.206;2024-01-11T14:46:22;16.10;38.40
32394;DHT22;18853;45.426;9.206;2024-01-11T14:48:47;16.20;38.40
32394;DHT22;18853;45.426;9.206;2024-01-11T14:51:14;16.20;38.20
32394;DHT22;18853;45.426;9.206;2024-01-11T14:53:39;16.10;38.40
32394;DHT22;18853;45.426;9.206;2024-01-11T14:56:05;16.00;38.60
32394;DHT22;18853;45.426;9.206;2024-01-11T14:58:31;15.90;38.90
32394;DHT22;18853;45.426;9.206;2024-01-11T15:00:57;15.90;38.80
32394;DHT22;18853;45.426;9.206;2024-01-11T15:03:23;15.80;38.80
32394;DHT22;18853;45.426;9.206;2024-01-11T15:05:51;15.70;39.00
32394;DHT22;18853;45.426;9.206;2024-01-11T15:08:18;15.40;39.40
32394;DHT22;18853;45.426;9.206;2024-01-11T15:10:44;15.10;39.90
32394;DHT22;18853;45.426;9.206;2024-01-11T15:13:10;14.80;40.50
32394;DHT22;18853;45.426;9.206;2024-01-11T15:15:36;14.70;41.00
32394;DHT22;18853;45.426;9.206;2024-01-11T15:18:02;14.50;41.20
32394;DHT22;18853;45.426;9.206;2024-01-11T15:20:28;14.40;41.50
32394;DHT22;18853;45.426;9.206;2024-01-11T15:22:54;14.30;41.70
32394;DHT22;18853;45.426;9.206;2024-01-11T15:25:19;14.10;41.90
32394;DHT22;18853;45.426;9.206;2024-01-11T15:27:46;14.00;42.30
32394;DHT22;18853;45.426;9.206;2024-01-11T15:30:12;13.90;42.50
32394;DHT22;18853;45.426;9.206;2024-01-11T15:32:39;13.70;42.70
32394;DHT22;18853;45.426;9.206;2024-01-11T15:35:05;13.70;43.00
32394;DHT22;18853;45.426;9.206;2024-01-11T15:37:33;13.60;43.20